sensor_id;sensor_type;location;lat;lon;timestamp;P1;durP1;ratioP1;P2;durP2;ratioP2
13048;SDS011;6591;51.446;5.404;2023-12-20T00:01:07;9.93;;;3.20;;
13048;SDS011;6591;51.446;5.404;2023-12-20T00:03:34;10.23;;;3.57;;
13048;SDS011;6591;51.446;5.404;2023-12-20T00:06:08;8.47;;;2.80;;
13048;SDS011;6591;51.446;5.404;2023-12-20T00:08:36;6.50;;;2.67;;
13048;SDS011;6591;51.446;5.404;2023-12-20T00:11:04;9.70;;;3.43;;
13048;SDS011;6591;51.446;5.404;2023-12-20T00:13:31;8.07;;;3.00;;
13048;SDS011;6591;51.446;5.404;2023-12-20T00:15:58;6.70;;;2.80;;
13048;SDS011;6591;51.446;5.404;2023-12-20T00:18:25;7.07;;;2.63;;
13048;SDS011;6591;51.446;5.404;2023-12-20T00:20:52;8.57;;;2.63;;
13048;SDS011;6591;51.446;5.404;2023-12-20T00:23:19;12.43;;;2.97;;
13048;SDS011;6591;51.446;5.404;2023-12-20T00:25:46;7.53;;;2.80;;
13048;SDS011;6591;51.446;5.404;2023-12-20T00:28:14;10.00;;;3.07;;
13048;SDS011;6591;51.446;5.404;2023-12-20T00:30:41;8.37;;;2.40;;
13048;SDS011;6591;51.446;5.404;2023-12-20T00:33:08;9.23;;;2.60;;
13048;SDS011;6591;51.446;5.404;2023-12-20T00:35:36;8.87;;;2.73;;
13048;SDS011;6591;51.446;5.404;2023-12-20T00:38:03;11.07;;;2.50;;
13048;SDS011;6591;51.446;5.404;2023-12-20T00:40:31;10.30;;;2.63;;
13048;SDS011;6591;51.446;5.404;2023-12-20T00:42:59;7.47;;;2.73;;
13048;SDS011;6591;51.446;5.404;2023-12-20T00:45:26;7.30;;;2.67;;
13048;SDS011;6591;51.446;5.404;2023-12-20T00:47:53;7.27;;;2.40;;
13048;SDS011;6591;51.446;5.404;2023-12-20T00:50:21;8.43;;;2.93;;
13048;SDS011;6591;51.446;5.404;2023-12-20T00:52:50;9.77;;;3.03;;
13048;SDS011;6591;51.446;5.404;2023-12-20T00:55:17;6.43;;;2.93;;
13048;SDS011;6591;51.446;5.404;2023-12-20T00:57:44;8.53;;;2.50;;
13048;SDS011;6591;51.446;5.404;2023-12-20T01:00:12;7.77;;;2.50;;
13048;SDS011;6591;51.446;5.404;2023-12-20T01:02:39;6.17;;;2.60;;
13048;SDS011;6591;51.446;5.404;2023-12-20T01:05:06;10.43;;;2.60;;
13048;SDS011;6591;51.446;5.404;2023-12-20T01:07:35;9.13;;;2.60;;
13048;SDS011;6591;51.446;5.404;2023-12-20T01:10:02;9.23;;;3.47;;
13048;SDS011;6591;51.446;5.404;2023-12-20T01:12:30;7.13;;;2.70;;
13048;SDS011;6591;51.446;5.404;2023-12-20T01:14:57;6.83;;;2.40;;
13048;SDS011;6591;51.446;5.404;2023-12-20T01:17:24;7.03;;;2.23;;
13048;SDS011;6591;51.446;5.404;2023-12-20T01:19:51;10.60;;;2.63;;
13048;SDS011;6591;51.446;5.404;2023-12-20T01:22:19;7.30;;;2.47;;
13048;SDS011;6591;51.446;5.404;2023-12-20T01:24:46;12.93;;;2.73;;
13048;SDS011;6591;51.446;5.404;2023-12-20T01:27:13;9.80;;;2.70;;
13048;SDS011;6591;51.446;5.404;2023-12-20T01:29:40;9.00;;;2.67;;
13048;SDS011;6591;51.446;5.404;2023-12-20T01:32:07;8.27;;;2.37;;
13048;SDS011;6591;51.446;5.404;2023-12-20T01:34:34;10.30;;;2.67;;
13048;SDS011;6591;51.446;5.404;2023-12-20T01:37:02;9.40;;;2.63;;
13048;SDS011;6591;51.446;5.404;2023-12-20T01:39:30;6.50;;;2.30;;
13048;SDS011;6591;51.446;5.404;2023-12-20T01:41:57;5.80;;;2.40;;
13048;SDS011;6591;51.446;5.404;2023-12-20T01:44:24;11.10;;;2.67;;
13048;SDS011;6591;51.446;5.404;2023-12-20T01:46:51;8.70;;;2.30;;
13048;SDS011;6591;51.446;5.404;2023-12-20T01:49:18;6.50;;;2.20;;
13048;SDS011;6591;51.446;5.404;2023-12-20T01:51:46;8.40;;;2.20;;
13048;SDS011;6591;51.446;5.404;2023-12-20T01:54:14;8.83;;;2.83;;
13048;SDS011;6591;51.446;5.404;2023-12-20T01:56:41;7.20;;;2.67;;
13048;SDS011;6591;51.446;5.404;2023-12-20T01:59:09;6.33;;;2.47;;
13048;SDS011;6591;51.446;5.404;2023-12-20T02:01:37;8.37;;;2.90;;
13048;SDS011;6591;51.446;5.404;2023-12-20T02:04:04;7.70;;;2.47;;
13048;SDS011;6591;51.446;5.404;2023-12-20T02:06:31;8.50;;;3.07;;
13048;SDS011;6591;51.446;5.404;2023-12-20T02:09:00;10.90;;;3.13;;
13048;SDS011;6591;51.446;5.404;2023-12-20T02:11:28;8.53;;;3.07;;
13048;SDS011;6591;51.446;5.404;2023-12-20T02:13:55;8.37;;;3.10;;
13048;SDS011;6591;51.446;5.404;2023-12-20T02:16:22;7.27;;;2.80;;
13048;SDS011;6591;51.446;5.404;2023-12-20T02:18:50;12.23;;;2.37;;
13048;SDS011;6591;51.446;5.404;2023-12-20T02:21:17;7.57;;;2.70;;
13048;SDS011;6591;51.446;5.404;2023-12-20T02:23:44;7.10;;;2.70;;
13048;SDS011;6591;51.446;5.404;2023-12-20T02:26:11;9.97;;;2.93;;
13048;SDS011;6591;51.446;5.404;2023-12-20T02:28:40;12.27;;;3.20;;
13048;SDS011;6591;51.446;5.404;2023-12-20T02:31:07;10.33;;;2.73;;
13048;SDS011;6591;51.446;5.404;2023-12-20T02:33:34;8.80;;;2.80;;
13048;SDS011;6591;51.446;5.404;2023-12-20T02:36:01;8.67;;;3.33;;
13048;SDS011;6591;51.446;5.404;2023-12-20T02:38:29;7.27;;;3.00;;
13048;SDS011;6591;51.446;5.404;2023-12-20T02:40:55;9.83;;;3.13;;
13048;SDS011;6591;51.446;5.404;2023-12-20T02:43:22;12.20;;;2.97;;
13048;SDS011;6591;51.446;5.404;2023-12-20T02:45:49;9.87;;;2.93;;
13048;SDS011;6591;51.446;5.404;2023-12-20T02:48:17;11.20;;;3.27;;
13048;SDS011;6591;51.446;5.404;2023-12-20T02:50:45;9.83;;;3.40;;
13048;SDS011;6591;51.446;5.404;2023-12-20T02:53:15;8.97;;;3.27;;
13048;SDS011;6591;51.446;5.404;2023-12-20T02:55:42;7.40;;;3.30;;
13048;SDS011;6591;51.446;5.404;2023-12-20T02:58:09;11.20;;;3.83;;
13048;SDS011;6591;51.446;5.404;2023-12-20T03:00:36;6.73;;;2.93;;
13048;SDS011;6591;51.446;5.404;2023-12-20T03:03:03;9.37;;;3.00;;
13048;SDS011;6591;51.446;5.404;2023-12-20T03:05:30;6.70;;;2.57;;
13048;SDS011;6591;51.446;5.404;2023-12-20T03:07:57;8.87;;;3.80;;
13048;SDS011;6591;51.446;5.404;2023-12-20T03:10:24;14.63;;;3.73;;
13048;SDS011;6591;51.446;5.404;2023-12-20T03:12:53;9.17;;;3.27;;
13048;SDS011;6591;51.446;5.404;2023-12-20T03:15:20;8.93;;;3.17;;
13048;SDS011;6591;51.446;5.404;2023-12-20T03:17:47;9.17;;;3.30;;
13048;SDS011;6591;51.446;5.404;2023-12-20T03:20:14;9.03;;;3.50;;
13048;SDS011;6591;51.446;5.404;2023-12-20T03:22:41;10.67;;;3.50;;
13048;SDS011;6591;51.446;5.404;2023-12-20T03:25:08;12.03;;;3.73;;
13048;SDS011;6591;51.446;5.404;2023-12-20T03:27:39;9.73;;;3.93;;
13048;SDS011;6591;51.446;5.404;2023-12-20T03:30:06;11.90;;;4.33;;
13048;SDS011;6591;51.446;5.404;2023-12-20T03:32:33;11.27;;;3.87;;
13048;SDS011;6591;51.446;5.404;2023-12-20T03:35:01;8.10;;;4.17;;
13048;SDS011;6591;51.446;5.404;2023-12-20T03:37:28;8.97;;;3.90;;
13048;SDS011;6591;51.446;5.404;2023-12-20T03:39:55;11.47;;;4.60;;
13048;SDS011;6591;51.446;5.404;2023-12-20T03:42:22;9.07;;;3.80;;
13048;SDS011;6591;51.446;5.404;2023-12-20T03:44:49;9.83;;;4.27;;
13048;SDS011;6591;51.446;5.404;2023-12-20T03:47:16;11.27;;;4.30;;
13048;SDS011;6591;51.446;5.404;2023-12-20T03:49:43;10.13;;;4.60;;
13048;SDS011;6591;51.446;5.404;2023-12-20T03:52:10;14.10;;;5.10;;
13048;SDS011;6591;51.446;5.404;2023-12-20T03:54:37;9.77;;;3.93;;
13048;SDS011;6591;51.446;5.404;2023-12-20T03:57:04;11.03;;;4.30;;
13048;SDS011;6591;51.446;5.404;2023-12-20T03:59:34;9.90;;;4.17;;
13048;SDS011;6591;51.446;5.404;2023-12-20T04:02:03;11.17;;;4.37;;
13048;SDS011;6591;51.446;5.404;2023-12-20T04:04:30;13.07;;;4.53;;
13048;SDS011;6591;51.446;5.404;2023-12-20T04:06:57;14.07;;;4.60;;
13048;SDS011;6591;51.446;5.404;2023-12-20T04:09:25;11.20;;;4.13;;
13048;SDS011;6591;51.446;5.404;2023-12-20T04:11:52;13.23;;;4.20;;
13048;SDS011;6591;51.446;5.404;2023-12-20T04:14:19;8.70;;;3.77;;
13048;SDS011;6591;51.446;5.404;2023-12-20T04:16:46;13.67;;;4.60;;
13048;SDS011;6591;51.446;5.404;2023-12-20T04:19:13;12.17;;;3.80;;
13048;SDS011;6591;51.446;5.404;2023-12-20T04:21:40;11.03;;;3.97;;
13048;SDS011;6591;51.446;5.404;2023-12-20T04:24:07;13.67;;;4.37;;
13048;SDS011;6591;51.446;5.404;2023-12-20T04:26:34;11.40;;;4.47;;
13048;SDS011;6591;51.446;5.404;2023-12-20T04:29:01;8.70;;;4.43;;
13048;SDS011;6591;51.446;5.404;2023-12-20T04:31:28;11.03;;;4.10;;
13048;SDS011;6591;51.446;5.404;2023-12-20T04:33:55;10.57;;;3.90;;
13048;SDS011;6591;51.446;5.404;2023-12-20T04:36:22;13.93;;;5.03;;
13048;SDS011;6591;51.446;5.404;2023-12-20T04:38:51;11.43;;;4.40;;
13048;SDS011;6591;51.446;5.404;2023-12-20T04:41:19;9.60;;;4.23;;
13048;SDS011;6591;51.446;5.404;2023-12-20T04:43:46;15.00;;;4.90;;
13048;SDS011;6591;51.446;5.404;2023-12-20T04:46:13;10.27;;;4.40;;
13048;SDS011;6591;51.446;5.404;2023-12-20T04:48:40;14.20;;;4.60;;
13048;SDS011;6591;51.446;5.404;2023-12-20T04:51:07;11.83;;;4.33;;
13048;SDS011;6591;51.446;5.404;2023-12-20T04:53:34;8.73;;;4.20;;
13048;SDS011;6591;51.446;5.404;2023-12-20T04:56:01;11.90;;;4.50;;
13048;SDS011;6591;51.446;5.404;2023-12-20T04:58:29;8.93;;;4.63;;
13048;SDS011;6591;51.446;5.404;2023-12-20T05:00:56;14.50;;;4.60;;
13048;SDS011;6591;51.446;5.404;2023-12-20T05:03:23;10.80;;;4.37;;
13048;SDS011;6591;51.446;5.404;2023-12-20T05:05:50;12.70;;;4.30;;
13048;SDS011;6591;51.446;5.404;2023-12-20T05:08:17;11.40;;;5.37;;
13048;SDS011;6591;51.446;5.404;2023-12-20T05:10:44;14.33;;;4.60;;
13048;SDS011;6591;51.446;5.404;2023-12-20T05:13:11;12.90;;;4.83;;
13048;SDS011;6591;51.446;5.404;2023-12-20T05:15:38;13.10;;;4.50;;
13048;SDS011;6591;51.446;5.404;2023-12-20T05:18:05;9.60;;;4.13;;
13048;SDS011;6591;51.446;5.404;2023-12-20T05:20:32;9.53;;;4.23;;
13048;SDS011;6591;51.446;5.404;2023-12-20T05:23:00;9.47;;;4.20;;
13048;SDS011;6591;51.446;5.404;2023-12-20T05:25:27;11.20;;;4.33;;
13048;SDS011;6591;51.446;5.404;2023-12-20T05:27:54;14.97;;;4.50;;
13048;SDS011;6591;51.446;5.404;2023-12-20T05:30:22;10.93;;;4.20;;
13048;SDS011;6591;51.446;5.404;2023-12-20T05:32:49;9.00;;;4.40;;
13048;SDS011;6591;51.446;5.404;2023-12-20T05:35:17;14.37;;;5.17;;
13048;SDS011;6591;51.446;5.404;2023-12-20T05:37:45;12.20;;;4.33;;
13048;SDS011;6591;51.446;5.404;2023-12-20T05:40:12;15.27;;;5.30;;
13048;SDS011;6591;51.446;5.404;2023-12-20T05:42:40;8.73;;;4.60;;
13048;SDS011;6591;51.446;5.404;2023-12-20T05:45:07;14.87;;;5.03;;
13048;SDS011;6591;51.446;5.404;2023-12-20T05:47:35;15.13;;;4.67;;
13048;SDS011;6591;51.446;5.404;2023-12-20T05:50:02;13.70;;;4.70;;
13048;SDS011;6591;51.446;5.404;2023-12-20T05:52:30;12.77;;;4.87;;
13048;SDS011;6591;51.446;5.404;2023-12-20T05:54:57;15.13;;;5.23;;
13048;SDS011;6591;51.446;5.404;2023-12-20T05:57:27;12.60;;;4.50;;
13048;SDS011;6591;51.446;5.404;2023-12-20T05:59:54;15.53;;;4.80;;
13048;SDS011;6591;51.446;5.404;2023-12-20T06:02:21;13.23;;;3.97;;
13048;SDS011;6591;51.446;5.404;2023-12-20T06:04:48;9.73;;;3.87;;
13048;SDS011;6591;51.446;5.404;2023-12-20T06:07:16;8.00;;;3.90;;
13048;SDS011;6591;51.446;5.404;2023-12-20T06:09:43;9.50;;;4.17;;
13048;SDS011;6591;51.446;5.404;2023-12-20T06:12:11;11.60;;;3.93;;
13048;SDS011;6591;51.446;5.404;2023-12-20T06:14:38;11.23;;;4.10;;
13048;SDS011;6591;51.446;5.404;2023-12-20T06:17:05;12.20;;;4.20;;
13048;SDS011;6591;51.446;5.404;2023-12-20T06:19:32;10.83;;;4.37;;
13048;SDS011;6591;51.446;5.404;2023-12-20T06:21:59;10.60;;;4.67;;
13048;SDS011;6591;51.446;5.404;2023-12-20T06:24:26;17.27;;;4.70;;
13048;SDS011;6591;51.446;5.404;2023-12-20T06:26:54;12.20;;;4.30;;
13048;SDS011;6591;51.446;5.404;2023-12-20T06:29:21;12.63;;;4.17;;
13048;SDS011;6591;51.446;5.404;2023-12-20T06:31:49;9.13;;;3.73;;
13048;SDS011;6591;51.446;5.404;2023-12-20T06:34:16;13.77;;;4.93;;
13048;SDS011;6591;51.446;5.404;2023-12-20T06:36:43;13.03;;;4.07;;
13048;SDS011;6591;51.446;5.404;2023-12-20T06:39:10;10.67;;;4.43;;
13048;SDS011;6591;51.446;5.404;2023-12-20T06:41:39;13.40;;;4.00;;
13048;SDS011;6591;51.446;5.404;2023-12-20T06:44:06;10.50;;;4.07;;
13048;SDS011;6591;51.446;5.404;2023-12-20T06:46:33;11.50;;;4.20;;
13048;SDS011;6591;51.446;5.404;2023-12-20T06:49:02;11.17;;;3.97;;
13048;SDS011;6591;51.446;5.404;2023-12-20T06:51:29;12.00;;;3.93;;
13048;SDS011;6591;51.446;5.404;2023-12-20T06:53:57;11.37;;;4.63;;
13048;SDS011;6591;51.446;5.404;2023-12-20T06:56:24;11.50;;;4.53;;
13048;SDS011;6591;51.446;5.404;2023-12-20T06:58:51;8.20;;;3.97;;
13048;SDS011;6591;51.446;5.404;2023-12-20T07:01:18;8.80;;;4.20;;
13048;SDS011;6591;51.446;5.404;2023-12-20T07:03:45;10.47;;;4.10;;
13048;SDS011;6591;51.446;5.404;2023-12-20T07:06:12;18.37;;;4.47;;
13048;SDS011;6591;51.446;5.404;2023-12-20T07:08:42;9.63;;;3.80;;
13048;SDS011;6591;51.446;5.404;2023-12-20T07:11:09;14.77;;;4.37;;
13048;SDS011;6591;51.446;5.404;2023-12-20T07:13:36;12.13;;;4.57;;
13048;SDS011;6591;51.446;5.404;2023-12-20T07:16:04;13.63;;;4.17;;
13048;SDS011;6591;51.446;5.404;2023-12-20T07:18:31;11.67;;;3.97;;
13048;SDS011;6591;51.446;5.404;2023-12-20T07:20:58;13.00;;;3.77;;
13048;SDS011;6591;51.446;5.404;2023-12-20T07:23:25;10.07;;;3.47;;
13048;SDS011;6591;51.446;5.404;2023-12-20T07:25:53;17.97;;;4.00;;
13048;SDS011;6591;51.446;5.404;2023-12-20T07:28:20;15.33;;;4.03;;
13048;SDS011;6591;51.446;5.404;2023-12-20T07:30:47;10.27;;;4.43;;
13048;SDS011;6591;51.446;5.404;2023-12-20T07:33:14;13.13;;;4.70;;
13048;SDS011;6591;51.446;5.404;2023-12-20T07:35:41;15.33;;;4.70;;
13048;SDS011;6591;51.446;5.404;2023-12-20T07:38:08;10.93;;;4.57;;
13048;SDS011;6591;51.446;5.404;2023-12-20T07:40:35;14.73;;;4.03;;
13048;SDS011;6591;51.446;5.404;2023-12-20T07:43:03;11.37;;;4.70;;
13048;SDS011;6591;51.446;5.404;2023-12-20T07:45:30;8.63;;;4.07;;
13048;SDS011;6591;51.446;5.404;2023-12-20T07:47:57;14.87;;;3.90;;
13048;SDS011;6591;51.446;5.404;2023-12-20T07:50:24;15.67;;;4.43;;
13048;SDS011;6591;51.446;5.404;2023-12-20T07:52:53;12.73;;;4.70;;
13048;SDS011;6591;51.446;5.404;2023-12-20T07:55:19;13.37;;;4.70;;
13048;SDS011;6591;51.446;5.404;2023-12-20T07:57:46;8.07;;;3.50;;
13048;SDS011;6591;51.446;5.404;2023-12-20T08:00:17;11.47;;;4.37;;
13048;SDS011;6591;51.446;5.404;2023-12-20T08:02:45;13.07;;;3.63;;
13048;SDS011;6591;51.446;5.404;2023-12-20T08:05:12;11.17;;;4.23;;
13048;SDS011;6591;51.446;5.404;2023-12-20T08:07:41;11.07;;;3.13;;
13048;SDS011;6591;51.446;5.404;2023-12-20T08:10:09;9.77;;;3.83;;
13048;SDS011;6591;51.446;5.404;2023-12-20T08:12:36;17.10;;;4.67;;
13048;SDS011;6591;51.446;5.404;2023-12-20T08:15:06;15.13;;;3.87;;
13048;SDS011;6591;51.446;5.404;2023-12-20T08:17:34;11.77;;;4.07;;
13048;SDS011;6591;51.446;5.404;2023-12-20T08:20:01;14.37;;;4.37;;
13048;SDS011;6591;51.446;5.404;2023-12-20T08:22:28;8.03;;;3.83;;
13048;SDS011;6591;51.446;5.404;2023-12-20T08:24:55;9.80;;;3.50;;
13048;SDS011;6591;51.446;5.404;2023-12-20T08:27:23;8.47;;;3.20;;
13048;SDS011;6591;51.446;5.404;2023-12-20T08:29:50;12.73;;;3.90;;
13048;SDS011;6591;51.446;5.404;2023-12-20T08:32:17;18.03;;;4.53;;
13048;SDS011;6591;51.446;5.404;2023-12-20T08:34:47;13.00;;;3.67;;
13048;SDS011;6591;51.446;5.404;2023-12-20T08:37:14;12.63;;;4.53;;
13048;SDS011;6591;51.446;5.404;2023-12-20T08:39:41;15.83;;;4.43;;
13048;SDS011;6591;51.446;5.404;2023-12-20T08:42:11;12.43;;;4.37;;
13048;SDS011;6591;51.446;5.404;2023-12-20T08:44:38;12.20;;;3.97;;
13048;SDS011;6591;51.446;5.404;2023-12-20T08:47:05;13.93;;;4.27;;
13048;SDS011;6591;51.446;5.404;2023-12-20T08:49:32;12.97;;;4.00;;
13048;SDS011;6591;51.446;5.404;2023-12-20T08:51:59;15.00;;;4.47;;
13048;SDS011;6591;51.446;5.404;2023-12-20T08:54:27;11.20;;;4.33;;
13048;SDS011;6591;51.446;5.404;2023-12-20T08:56:54;10.67;;;3.53;;
13048;SDS011;6591;51.446;5.404;2023-12-20T08:59:21;10.27;;;4.07;;
13048;SDS011;6591;51.446;5.404;2023-12-20T09:01:48;8.60;;;3.50;;
13048;SDS011;6591;51.446;5.404;2023-12-20T09:04:20;11.43;;;3.53;;
13048;SDS011;6591;51.446;5.404;2023-12-20T09:06:47;8.87;;;3.50;;
13048;SDS011;6591;51.446;5.404;2023-12-20T09:09:15;12.63;;;4.17;;
13048;SDS011;6591;51.446;5.404;2023-12-20T09:11:42;15.37;;;4.07;;
13048;SDS011;6591;51.446;5.404;2023-12-20T09:14:09;8.33;;;3.80;;
13048;SDS011;6591;51.446;5.404;2023-12-20T09:16:36;13.67;;;3.80;;
13048;SDS011;6591;51.446;5.404;2023-12-20T09:19:03;11.97;;;3.90;;
13048;SDS011;6591;51.446;5.404;2023-12-20T09:21:31;12.63;;;3.50;;
13048;SDS011;6591;51.446;5.404;2023-12-20T09:23:57;15.03;;;3.80;;
13048;SDS011;6591;51.446;5.404;2023-12-20T09:26:25;12.23;;;4.60;;
13048;SDS011;6591;51.446;5.404;2023-12-20T09:28:52;10.67;;;3.90;;
13048;SDS011;6591;51.446;5.404;2023-12-20T09:31:19;15.50;;;4.17;;
13048;SDS011;6591;51.446;5.404;2023-12-20T09:33:46;13.00;;;3.50;;
13048;SDS011;6591;51.446;5.404;2023-12-20T09:36:13;11.90;;;3.47;;
13048;SDS011;6591;51.446;5.404;2023-12-20T09:38:40;10.30;;;3.80;;
13048;SDS011;6591;51.446;5.404;2023-12-20T09:41:09;13.67;;;3.43;;
13048;SDS011;6591;51.446;5.404;2023-12-20T09:43:37;11.77;;;3.10;;
13048;SDS011;6591;51.446;5.404;2023-12-20T09:46:05;10.30;;;3.73;;
13048;SDS011;6591;51.446;5.404;2023-12-20T09:48:34;10.23;;;3.17;;
13048;SDS011;6591;51.446;5.404;2023-12-20T09:51:04;9.27;;;3.63;;
13048;SDS011;6591;51.446;5.404;2023-12-20T09:53:32;9.80;;;3.93;;
13048;SDS011;6591;51.446;5.404;2023-12-20T09:56:03;13.20;;;3.87;;
13048;SDS011;6591;51.446;5.404;2023-12-20T09:58:32;8.90;;;3.77;;
13048;SDS011;6591;51.446;5.404;2023-12-20T10:01:02;8.33;;;3.27;;
13048;SDS011;6591;51.446;5.404;2023-12-20T10:03:30;11.77;;;3.60;;
13048;SDS011;6591;51.446;5.404;2023-12-20T10:05:58;12.13;;;3.47;;
13048;SDS011;6591;51.446;5.404;2023-12-20T10:08:28;12.20;;;3.47;;
13048;SDS011;6591;51.446;5.404;2023-12-20T10:10:56;8.33;;;3.10;;
13048;SDS011;6591;51.446;5.404;2023-12-20T10:13:29;9.80;;;3.80;;
13048;SDS011;6591;51.446;5.404;2023-12-20T10:15:56;9.93;;;3.20;;
13048;SDS011;6591;51.446;5.404;2023-12-20T10:18:29;14.60;;;3.70;;
13048;SDS011;6591;51.446;5.404;2023-12-20T10:21:05;14.93;;;3.73;;
13048;SDS011;6591;51.446;5.404;2023-12-20T10:23:36;9.67;;;3.47;;
13048;SDS011;6591;51.446;5.404;2023-12-20T10:26:05;10.27;;;2.97;;
13048;SDS011;6591;51.446;5.404;2023-12-20T10:28:35;9.73;;;3.67;;
13048;SDS011;6591;51.446;5.404;2023-12-20T10:31:03;12.50;;;3.23;;
13048;SDS011;6591;51.446;5.404;2023-12-20T10:33:31;9.93;;;4.13;;
13048;SDS011;6591;51.446;5.404;2023-12-20T10:35:59;12.67;;;3.87;;
13048;SDS011;6591;51.446;5.404;2023-12-20T10:38:26;14.93;;;4.23;;
13048;SDS011;6591;51.446;5.404;2023-12-20T10:40:57;10.53;;;3.60;;
13048;SDS011;6591;51.446;5.404;2023-12-20T10:43:28;10.33;;;3.07;;
13048;SDS011;6591;51.446;5.404;2023-12-20T10:45:57;9.40;;;3.63;;
13048;SDS011;6591;51.446;5.404;2023-12-20T10:48:25;11.33;;;3.67;;
13048;SDS011;6591;51.446;5.404;2023-12-20T10:50:57;11.40;;;4.00;;
13048;SDS011;6591;51.446;5.404;2023-12-20T10:53:25;10.03;;;3.40;;
13048;SDS011;6591;51.446;5.404;2023-12-20T10:55:55;11.73;;;3.50;;
13048;SDS011;6591;51.446;5.404;2023-12-20T10:58:27;9.27;;;3.40;;
13048;SDS011;6591;51.446;5.404;2023-12-20T11:01:00;14.17;;;3.77;;
13048;SDS011;6591;51.446;5.404;2023-12-20T11:03:32;14.33;;;3.77;;
13048;SDS011;6591;51.446;5.404;2023-12-20T11:09:14;10.37;;;4.10;;
13048;SDS011;6591;51.446;5.404;2023-12-20T11:17:14;7.40;;;2.80;;
13048;SDS011;6591;51.446;5.404;2023-12-20T11:22:26;8.77;;;3.00;;
13048;SDS011;6591;51.446;5.404;2023-12-20T11:25:10;10.87;;;3.53;;
13048;SDS011;6591;51.446;5.404;2023-12-20T11:27:41;11.53;;;3.70;;
13048;SDS011;6591;51.446;5.404;2023-12-20T11:30:11;11.53;;;3.30;;
13048;SDS011;6591;51.446;5.404;2023-12-20T11:32:43;10.60;;;3.73;;
13048;SDS011;6591;51.446;5.404;2023-12-20T11:37:40;7.70;;;3.20;;
13048;SDS011;6591;51.446;5.404;2023-12-20T11:40:12;9.57;;;3.63;;
13048;SDS011;6591;51.446;5.404;2023-12-20T11:42:46;11.63;;;3.30;;
13048;SDS011;6591;51.446;5.404;2023-12-20T11:45:18;11.03;;;3.70;;
13048;SDS011;6591;51.446;5.404;2023-12-20T11:47:52;10.40;;;3.80;;
13048;SDS011;6591;51.446;5.404;2023-12-20T11:50:21;11.87;;;4.07;;
13048;SDS011;6591;51.446;5.404;2023-12-20T11:52:50;11.20;;;3.43;;
13048;SDS011;6591;51.446;5.404;2023-12-20T11:55:19;9.23;;;3.67;;
13048;SDS011;6591;51.446;5.404;2023-12-20T11:57:47;8.30;;;3.40;;
13048;SDS011;6591;51.446;5.404;2023-12-20T12:00:14;13.07;;;3.70;;
13048;SDS011;6591;51.446;5.404;2023-12-20T12:02:42;7.30;;;3.30;;
13048;SDS011;6591;51.446;5.404;2023-12-20T12:05:13;9.10;;;3.60;;
13048;SDS011;6591;51.446;5.404;2023-12-20T12:07:40;12.43;;;3.63;;
13048;SDS011;6591;51.446;5.404;2023-12-20T12:10:08;9.80;;;3.27;;
13048;SDS011;6591;51.446;5.404;2023-12-20T12:12:35;10.50;;;3.67;;
13048;SDS011;6591;51.446;5.404;2023-12-20T12:15:02;11.53;;;4.07;;
13048;SDS011;6591;51.446;5.404;2023-12-20T12:17:30;8.87;;;3.60;;
13048;SDS011;6591;51.446;5.404;2023-12-20T12:20:02;12.27;;;3.63;;
13048;SDS011;6591;51.446;5.404;2023-12-20T12:22:31;15.77;;;4.07;;
13048;SDS011;6591;51.446;5.404;2023-12-20T12:25:05;11.50;;;3.83;;
13048;SDS011;6591;51.446;5.404;2023-12-20T12:27:41;11.17;;;4.23;;
13048;SDS011;6591;51.446;5.404;2023-12-20T12:30:10;8.73;;;3.50;;
13048;SDS011;6591;51.446;5.404;2023-12-20T12:32:39;11.20;;;4.27;;
13048;SDS011;6591;51.446;5.404;2023-12-20T12:35:07;9.47;;;3.90;;
13048;SDS011;6591;51.446;5.404;2023-12-20T12:37:39;12.90;;;3.93;;
13048;SDS011;6591;51.446;5.404;2023-12-20T12:40:09;9.57;;;3.77;;
13048;SDS011;6591;51.446;5.404;2023-12-20T12:42:38;11.60;;;3.80;;
13048;SDS011;6591;51.446;5.404;2023-12-20T12:45:07;8.87;;;3.70;;
13048;SDS011;6591;51.446;5.404;2023-12-20T12:47:35;8.20;;;4.27;;
13048;SDS011;6591;51.446;5.404;2023-12-20T12:50:03;15.27;;;4.37;;
13048;SDS011;6591;51.446;5.404;2023-12-20T12:52:31;10.13;;;4.13;;
13048;SDS011;6591;51.446;5.404;2023-12-20T12:54:59;11.97;;;5.10;;
13048;SDS011;6591;51.446;5.404;2023-12-20T12:57:26;7.40;;;4.73;;
13048;SDS011;6591;51.446;5.404;2023-12-20T12:59:53;12.73;;;5.00;;
13048;SDS011;6591;51.446;5.404;2023-12-20T13:02:20;15.57;;;5.07;;
13048;SDS011;6591;51.446;5.404;2023-12-20T13:04:47;10.57;;;4.30;;
13048;SDS011;6591;51.446;5.404;2023-12-20T13:07:14;13.87;;;5.47;;
13048;SDS011;6591;51.446;5.404;2023-12-20T13:09:41;12.30;;;5.73;;
13048;SDS011;6591;51.446;5.404;2023-12-20T13:12:09;9.60;;;5.20;;
13048;SDS011;6591;51.446;5.404;2023-12-20T13:14:36;12.97;;;5.00;;
13048;SDS011;6591;51.446;5.404;2023-12-20T13:17:07;15.03;;;6.07;;
13048;SDS011;6591;51.446;5.404;2023-12-20T13:19:34;13.73;;;5.70;;
13048;SDS011;6591;51.446;5.404;2023-12-20T13:22:02;15.33;;;6.20;;
13048;SDS011;6591;51.446;5.404;2023-12-20T13:24:30;14.00;;;5.37;;
13048;SDS011;6591;51.446;5.404;2023-12-20T13:26:57;12.70;;;5.67;;
13048;SDS011;6591;51.446;5.404;2023-12-20T13:29:24;20.53;;;5.47;;
13048;SDS011;6591;51.446;5.404;2023-12-20T13:31:53;14.33;;;4.90;;
13048;SDS011;6591;51.446;5.404;2023-12-20T13:34:20;9.03;;;4.90;;
13048;SDS011;6591;51.446;5.404;2023-12-20T13:36:48;11.87;;;5.43;;
13048;SDS011;6591;51.446;5.404;2023-12-20T13:39:17;13.73;;;5.50;;
13048;SDS011;6591;51.446;5.404;2023-12-20T13:41:44;9.83;;;4.53;;
13048;SDS011;6591;51.446;5.404;2023-12-20T13:44:11;9.10;;;4.23;;
13048;SDS011;6591;51.446;5.404;2023-12-20T13:46:39;9.90;;;3.87;;
13048;SDS011;6591;51.446;5.404;2023-12-20T13:49:07;14.63;;;5.13;;
13048;SDS011;6591;51.446;5.404;2023-12-20T13:51:35;11.80;;;4.90;;
13048;SDS011;6591;51.446;5.404;2023-12-20T13:54:02;13.20;;;4.70;;
13048;SDS011;6591;51.446;5.404;2023-12-20T13:56:29;9.63;;;4.53;;
13048;SDS011;6591;51.446;5.404;2023-12-20T13:58:56;9.50;;;3.80;;
13048;SDS011;6591;51.446;5.404;2023-12-20T14:01:23;10.03;;;3.63;;
13048;SDS011;6591;51.446;5.404;2023-12-20T14:03:52;12.23;;;4.67;;
13048;SDS011;6591;51.446;5.404;2023-12-20T14:06:19;14.13;;;4.30;;
13048;SDS011;6591;51.446;5.404;2023-12-20T14:08:46;13.27;;;4.33;;
13048;SDS011;6591;51.446;5.404;2023-12-20T14:11:14;9.93;;;3.77;;
13048;SDS011;6591;51.446;5.404;2023-12-20T14:13:42;11.90;;;4.27;;
13048;SDS011;6591;51.446;5.404;2023-12-20T14:16:09;11.83;;;4.17;;
13048;SDS011;6591;51.446;5.404;2023-12-20T14:18:37;11.47;;;4.67;;
13048;SDS011;6591;51.446;5.404;2023-12-20T14:21:06;11.90;;;4.30;;
13048;SDS011;6591;51.446;5.404;2023-12-20T14:23:33;11.50;;;4.30;;
13048;SDS011;6591;51.446;5.404;2023-12-20T14:26:00;14.17;;;4.60;;
13048;SDS011;6591;51.446;5.404;2023-12-20T14:28:28;12.53;;;4.43;;
13048;SDS011;6591;51.446;5.404;2023-12-20T14:30:55;12.87;;;4.53;;
13048;SDS011;6591;51.446;5.404;2023-12-20T14:33:23;10.87;;;4.70;;
13048;SDS011;6591;51.446;5.404;2023-12-20T14:35:50;7.83;;;3.97;;
13048;SDS011;6591;51.446;5.404;2023-12-20T14:38:17;11.73;;;4.30;;
13048;SDS011;6591;51.446;5.404;2023-12-20T14:40:45;9.57;;;3.97;;
13048;SDS011;6591;51.446;5.404;2023-12-20T14:43:12;7.50;;;3.33;;
13048;SDS011;6591;51.446;5.404;2023-12-20T14:45:39;11.93;;;3.80;;
13048;SDS011;6591;51.446;5.404;2023-12-20T14:48:06;11.43;;;3.83;;
13048;SDS011;6591;51.446;5.404;2023-12-20T14:50:34;10.93;;;4.00;;
13048;SDS011;6591;51.446;5.404;2023-12-20T14:53:03;12.17;;;4.03;;
13048;SDS011;6591;51.446;5.404;2023-12-20T14:55:30;10.80;;;3.93;;
13048;SDS011;6591;51.446;5.404;2023-12-20T14:57:57;11.03;;;4.40;;
13048;SDS011;6591;51.446;5.404;2023-12-20T15:00:24;10.77;;;3.73;;
13048;SDS011;6591;51.446;5.404;2023-12-20T15:02:51;13.70;;;4.40;;
13048;SDS011;6591;51.446;5.404;2023-12-20T15:05:22;11.63;;;4.40;;
13048;SDS011;6591;51.446;5.404;2023-12-20T15:07:49;11.73;;;4.77;;
13048;SDS011;6591;51.446;5.404;2023-12-20T15:10:16;8.10;;;3.60;;